sensor_id;sensor_type;location;lat;lon;timestamp;temperature;humidity
21799;DHT22;24973;47.178;15.316;2023-03-14T00:01:57;3.60;99.90
21799;DHT22;24973;47.178;15.316;2023-03-14T00:04:46;3.50;99.90
21799;DHT22;24973;47.178;15.316;2023-03-14T00:07:36;3.50;99.90
21799;DHT22;24973;47.178;15.316;2023-03-14T00:10:26;3.50;99.90
21799;DHT22;24973;47.178;15.316;2023-03-14T00:13:14;3.50;99.90
21799;DHT22;24973;47.178;15.316;2023-03-14T00:16:06;3.50;99.90
21799;DHT22;24973;47.178;15.316;2023-03-14T00:18:58;3.40;99.90
21799;DHT22;24973;47.178;15.316;2023-03-14T00:21:47;3.30;99.90
21799;DHT22;24973;47.178;15.316;2023-03-14T00:24:36;3.30;99.90
21799;DHT22;24973;47.178;15.316;2023-03-14T00:27:24;3.30;99.90
21799;DHT22;24973;47.178;15.316;2023-03-14T00:30:13;3.20;99.90
21799;DHT22;24973;47.178;15.316;2023-03-14T00:33:04;3.20;99.90
21799;DHT22;24973;47.178;15.316;2023-03-14T00:35:54;3.20;99.90
21799;DHT22;24973;47.178;15.316;2023-03-14T00:38:44;3.10;99.90
21799;DHT22;24973;47.178;15.316;2023-03-14T00:41:34;3.10;99.90
21799;DHT22;24973;47.178;15.316;2023-03-14T00:44:23;3.00;99.90
21799;DHT22;24973;47.178;15.316;2023-03-14T00:47:11;3.00;99.90
21799;DHT22;24973;47.178;15.316;2023-03-14T00:50:02;3.00;99.90
21799;DHT22;24973;47.178;15.316;2023-03-14T00:52:51;3.00;99.90
21799;DHT22;24973;47.178;15.316;2023-03-14T00:55:40;3.00;99.90
21799;DHT22;24973;47.178;15.316;2023-03-14T00:58:30;3.00;99.90
21799;DHT22;24973;47.178;15.316;2023-03-14T01:01:19;3.00;99.90
21799;DHT22;24973;47.178;15.316;2023-03-14T01:04:08;3.00;99.90
21799;DHT22;24973;47.178;15.316;2023-03-14T01:06:58;3.00;99.90
21799;DHT22;24973;47.178;15.316;2023-03-14T01:09:49;3.00;99.90
21799;DHT22;24973;47.178;15.316;2023-03-14T01:12:39;2.90;99.90
21799;DHT22;24973;47.178;15.316;2023-03-14T01:15:28;2.80;99.90
21799;DHT22;24973;47.178;15.316;2023-03-14T01:18:17;2.80;99.90
21799;DHT22;24973;47.178;15.316;2023-03-14T01:21:11;2.80;99.90
21799;DHT22;24973;47.178;15.316;2023-03-14T01:24:04;2.80;99.90
21799;DHT22;24973;47.178;15.316;2023-03-14T01:26:54;2.80;99.90
21799;DHT22;24973;47.178;15.316;2023-03-14T01:29:42;2.60;99.90
21799;DHT22;24973;47.178;15.316;2023-03-14T01:32:31;2.60;99.90
21799;DHT22;24973;47.178;15.316;2023-03-14T01:35:20;2.70;99.90
21799;DHT22;24973;47.178;15.316;2023-03-14T01:38:09;2.70;99.90
21799;DHT22;24973;47.178;15.316;2023-03-14T01:40:59;2.70;99.90
21799;DHT22;24973;47.178;15.316;2023-03-14T01:43:48;2.70;99.90
21799;DHT22;24973;47.178;15.316;2023-03-14T01:46:39;2.60;99.90
21799;DHT22;24973;47.178;15.316;2023-03-14T01:49:32;2.60;99.90
21799;DHT22;24973;47.178;15.316;2023-03-14T01:52:24;2.60;99.90
21799;DHT22;24973;47.178;15.316;2023-03-14T01:55:16;2.70;99.90
21799;DHT22;24973;47.178;15.316;2023-03-14T01:58:09;2.80;99.90
21799;DHT22;24973;47.178;15.316;2023-03-14T02:00:58;2.70;99.90
21799;DHT22;24973;47.178;15.316;2023-03-14T02:03:52;2.80;99.90
21799;DHT22;24973;47.178;15.316;2023-03-14T02:06:49;2.80;99.90
21799;DHT22;24973;47.178;15.316;2023-03-14T02:09:40;2.70;99.90
21799;DHT22;24973;47.178;15.316;2023-03-14T02:12:29;2.70;99.90
21799;DHT22;24973;47.178;15.316;2023-03-14T02:15:19;2.70;99.90
21799;DHT22;24973;47.178;15.316;2023-03-14T02:18:09;2.70;99.90
21799;DHT22;24973;47.178;15.316;2023-03-14T02:21:01;2.70;99.90
21799;DHT22;24973;47.178;15.316;2023-03-14T02:23:59;2.70;99.90
21799;DHT22;24973;47.178;15.316;2023-03-14T02:27:18;2.70;99.90
21799;DHT22;24973;47.178;15.316;2023-03-14T02:30:11;2.70;99.90
21799;DHT22;24973;47.178;15.316;2023-03-14T02:33:04;2.70;99.90
21799;DHT22;24973;47.178;15.316;2023-03-14T02:35:58;2.60;99.90
21799;DHT22;24973;47.178;15.316;2023-03-14T02:38:51;2.60;99.90
21799;DHT22;24973;47.178;15.316;2023-03-14T02:41:43;2.60;99.90
21799;DHT22;24973;47.178;15.316;2023-03-14T02:44:34;2.40;99.90
21799;DHT22;24973;47.178;15.316;2023-03-14T02:47:27;2.40;99.90
21799;DHT22;24973;47.178;15.316;2023-03-14T02:50:21;2.40;99.90
21799;DHT22;24973;47.178;15.316;2023-03-14T02:53:13;2.40;99.90
21799;DHT22;24973;47.178;15.316;2023-03-14T02:56:04;2.50;99.90
21799;DHT22;24973;47.178;15.316;2023-03-14T02:58:54;2.60;99.90
21799;DHT22;24973;47.178;15.316;2023-03-14T03:01:46;2.50;99.90
21799;DHT22;24973;47.178;15.316;2023-03-14T03:04:34;2.60;99.90
21799;DHT22;24973;47.178;15.316;2023-03-14T03:07:23;2.60;99.90
21799;DHT22;24973;47.178;15.316;2023-03-14T03:10:12;2.70;99.90
21799;DHT22;24973;47.178;15.316;2023-03-14T03:13:01;2.70;99.90
21799;DHT22;24973;47.178;15.316;2023-03-14T03:15:50;2.60;99.90
21799;DHT22;24973;47.178;15.316;2023-03-14T03:18:40;2.80;99.90
21799;DHT22;24973;47.178;15.316;2023-03-14T03:21:29;2.80;99.90
21799;DHT22;24973;47.178;15.316;2023-03-14T03:24:18;2.80;99.90
21799;DHT22;24973;47.178;15.316;2023-03-14T03:27:06;2.90;99.90
21799;DHT22;24973;47.178;15.316;2023-03-14T03:29:55;2.90;99.90
21799;DHT22;24973;47.178;15.316;2023-03-14T03:32:44;2.90;99.90
21799;DHT22;24973;47.178;15.316;2023-03-14T03:35:34;2.90;99.90
21799;DHT22;24973;47.178;15.316;2023-03-14T03:38:23;2.80;99.90
21799;DHT22;24973;47.178;15.316;2023-03-14T03:41:12;2.80;99.90
21799;DHT22;24973;47.178;15.316;2023-03-14T03:44:00;2.80;99.90
21799;DHT22;24973;47.178;15.316;2023-03-14T03:46:49;2.70;99.90
21799;DHT22;24973;47.178;15.316;2023-03-14T03:49:38;2.70;99.90
21799;DHT22;24973;47.178;15.316;2023-03-14T03:52:28;2.70;99.90
21799;DHT22;24973;47.178;15.316;2023-03-14T03:55:17;2.70;99.90
21799;DHT22;24973;47.178;15.316;2023-03-14T03:58:06;2.60;99.90
21799;DHT22;24973;47.178;15.316;2023-03-14T04:00:54;2.70;99.90
21799;DHT22;24973;47.178;15.316;2023-03-14T04:03:43;2.70;99.90
21799;DHT22;24973;47.178;15.316;2023-03-14T04:06:32;2.70;99.90
21799;DHT22;24973;47.178;15.316;2023-03-14T04:09:22;2.70;99.90
21799;DHT22;24973;47.178;15.316;2023-03-14T04:12:11;2.70;99.90
21799;DHT22;24973;47.178;15.316;2023-03-14T04:15:00;2.70;99.90
21799;DHT22;24973;47.178;15.316;2023-03-14T04:17:49;2.60;99.90
21799;DHT22;24973;47.178;15.316;2023-03-14T04:20:37;2.80;99.90
21799;DHT22;24973;47.178;15.316;2023-03-14T04:23:26;2.80;99.90
21799;DHT22;24973;47.178;15.316;2023-03-14T04:26:16;3.00;99.90
21799;DHT22;24973;47.178;15.316;2023-03-14T04:29:05;3.00;99.90
21799;DHT22;24973;47.178;15.316;2023-03-14T04:31:54;3.00;99.90
21799;DHT22;24973;47.178;15.316;2023-03-14T04:34:43;3.10;99.90
21799;DHT22;24973;47.178;15.316;2023-03-14T04:37:32;3.10;99.90
21799;DHT22;24973;47.178;15.316;2023-03-14T04:40:20;3.10;99.90
21799;DHT22;24973;47.178;15.316;2023-03-14T04:43:11;3.10;99.90
21799;DHT22;24973;47.178;15.316;2023-03-14T04:46:00;3.20;99.90
21799;DHT22;24973;47.178;15.316;2023-03-14T04:48:49;3.20;99.90
21799;DHT22;24973;47.178;15.316;2023-03-14T04:51:37;3.30;99.90
21799;DHT22;24973;47.178;15.316;2023-03-14T04:54:26;3.20;99.90
21799;DHT22;24973;47.178;15.316;2023-03-14T04:57:15;3.20;99.90
21799;DHT22;24973;47.178;15.316;2023-03-14T05:00:07;3.20;99.90
21799;DHT22;24973;47.178;15.316;2023-03-14T05:02:56;3.10;99.90
21799;DHT22;24973;47.178;15.316;2023-03-14T05:05:46;3.20;99.90
21799;DHT22;24973;47.178;15.316;2023-03-14T05:08:35;3.30;99.90
21799;DHT22;24973;47.178;15.316;2023-03-14T05:11:23;3.40;99.90
21799;DHT22;24973;47.178;15.316;2023-03-14T05:14:12;3.50;99.90
21799;DHT22;24973;47.178;15.316;2023-03-14T05:17:02;3.50;99.90
21799;DHT22;24973;47.178;15.316;2023-03-14T05:19:51;4.60;99.90
21799;DHT22;24973;47.178;15.316;2023-03-14T05:22:40;3.50;99.90
21799;DHT22;24973;47.178;15.316;2023-03-14T05:25:28;3.60;99.90
21799;DHT22;24973;47.178;15.316;2023-03-14T05:28:18;3.70;99.90
21799;DHT22;24973;47.178;15.316;2023-03-14T05:31:08;3.70;99.90
21799;DHT22;24973;47.178;15.316;2023-03-14T05:33:58;3.80;99.90
21799;DHT22;24973;47.178;15.316;2023-03-14T05:36:47;3.90;99.90
21799;DHT22;24973;47.178;15.316;2023-03-14T05:39:36;3.80;99.90
21799;DHT22;24973;47.178;15.316;2023-03-14T05:42:25;3.90;99.90
21799;DHT22;24973;47.178;15.316;2023-03-14T05:45:13;4.00;99.90
21799;DHT22;24973;47.178;15.316;2023-03-14T05:48:02;4.00;99.90
21799;DHT22;24973;47.178;15.316;2023-03-14T05:50:56;4.00;99.90
21799;DHT22;24973;47.178;15.316;2023-03-14T05:53:46;4.10;99.90
21799;DHT22;24973;47.178;15.316;2023-03-14T05:56:35;4.10;99.90
21799;DHT22;24973;47.178;15.316;2023-03-14T05:59:24;4.20;99.90
21799;DHT22;24973;47.178;15.316;2023-03-14T06:02:12;4.20;99.90
21799;DHT22;24973;47.178;15.316;2023-03-14T06:05:01;4.30;99.90
21799;DHT22;24973;47.178;15.316;2023-03-14T06:07:51;4.30;99.90
21799;DHT22;24973;47.178;15.316;2023-03-14T06:10:40;4.30;99.90
21799;DHT22;24973;47.178;15.316;2023-03-14T06:13:29;4.40;99.90
21799;DHT22;24973;47.178;15.316;2023-03-14T06:16:17;4.50;99.90
21799;DHT22;24973;47.178;15.316;2023-03-14T06:19:06;4.50;99.90
21799;DHT22;24973;47.178;15.316;2023-03-14T06:21:55;4.50;99.90
21799;DHT22;24973;47.178;15.316;2023-03-14T06:24:45;4.50;99.90
21799;DHT22;24973;47.178;15.316;2023-03-14T06:27:34;4.50;99.90
21799;DHT22;24973;47.178;15.316;2023-03-14T06:30:23;4.50;99.90
21799;DHT22;24973;47.178;15.316;2023-03-14T06:33:11;4.50;99.90
21799;DHT22;24973;47.178;15.316;2023-03-14T06:36:00;4.60;99.90
21799;DHT22;24973;47.178;15.316;2023-03-14T06:38:49;4.70;99.90
21799;DHT22;24973;47.178;15.316;2023-03-14T06:41:39;4.80;99.90
21799;DHT22;24973;47.178;15.316;2023-03-14T06:44:28;4.90;99.90
21799;DHT22;24973;47.178;15.316;2023-03-14T06:47:17;5.00;99.90
21799;DHT22;24973;47.178;15.316;2023-03-14T06:50:07;5.00;99.90
21799;DHT22;24973;47.178;15.316;2023-03-14T06:52:56;4.90;99.90
21799;DHT22;24973;47.178;15.316;2023-03-14T06:55:45;5.00;99.90
21799;DHT22;24973;47.178;15.316;2023-03-14T06:58:35;5.10;99.90
21799;DHT22;24973;47.178;15.316;2023-03-14T07:01:25;5.30;99.90
21799;DHT22;24973;47.178;15.316;2023-03-14T07:04:15;5.40;99.90
21799;DHT22;24973;47.178;15.316;2023-03-14T07:07:04;5.60;99.90
21799;DHT22;24973;47.178;15.316;2023-03-14T07:09:53;5.80;99.90
21799;DHT22;24973;47.178;15.316;2023-03-14T07:12:42;5.80;99.90
21799;DHT22;24973;47.178;15.316;2023-03-14T07:15:32;5.80;99.90
21799;DHT22;24973;47.178;15.316;2023-03-14T07:18:21;5.90;99.90
21799;DHT22;24973;47.178;15.316;2023-03-14T07:21:09;6.10;99.90
21799;DHT22;24973;47.178;15.316;2023-03-14T07:23:59;6.30;99.90
21799;DHT22;24973;47.178;15.316;2023-03-14T07:26:47;6.40;99.90
21799;DHT22;24973;47.178;15.316;2023-03-14T07:29:36;6.60;99.90
21799;DHT22;24973;47.178;15.316;2023-03-14T07:32:26;6.70;99.90
21799;DHT22;24973;47.178;15.316;2023-03-14T07:35:15;6.90;99.90
21799;DHT22;24973;47.178;15.316;2023-03-14T07:38:04;7.10;99.90
21799;DHT22;24973;47.178;15.316;2023-03-14T07:40:58;7.30;99.90
21799;DHT22;24973;47.178;15.316;2023-03-14T07:43:47;7.50;99.90
21799;DHT22;24973;47.178;15.316;2023-03-14T07:46:36;7.80;99.90
21799;DHT22;24973;47.178;15.316;2023-03-14T07:49:26;8.10;99.90
21799;DHT22;24973;47.178;15.316;2023-03-14T07:52:15;8.20;99.90
21799;DHT22;24973;47.178;15.316;2023-03-14T07:55:05;8.30;99.90
21799;DHT22;24973;47.178;15.316;2023-03-14T07:57:54;8.50;99.90
21799;DHT22;24973;47.178;15.316;2023-03-14T08:00:43;8.60;99.90
21799;DHT22;24973;47.178;15.316;2023-03-14T08:03:32;8.70;99.90
21799;DHT22;24973;47.178;15.316;2023-03-14T08:06:22;8.90;99.90
21799;DHT22;24973;47.178;15.316;2023-03-14T08:09:11;9.00;99.90
21799;DHT22;24973;47.178;15.316;2023-03-14T08:11:59;9.20;99.90
21799;DHT22;24973;47.178;15.316;2023-03-14T08:14:48;9.40;99.90
21799;DHT22;24973;47.178;15.316;2023-03-14T08:17:37;9.70;99.90
21799;DHT22;24973;47.178;15.316;2023-03-14T08:20:27;10.00;99.90
21799;DHT22;24973;47.178;15.316;2023-03-14T08:23:18;10.20;99.90
21799;DHT22;24973;47.178;15.316;2023-03-14T08:26:07;10.40;99.90
21799;DHT22;24973;47.178;15.316;2023-03-14T08:28:56;10.60;99.90
21799;DHT22;24973;47.178;15.316;2023-03-14T08:31:45;10.70;99.90
21799;DHT22;24973;47.178;15.316;2023-03-14T08:34:33;10.70;99.90
21799;DHT22;24973;47.178;15.316;2023-03-14T08:37:22;10.90;99.90
21799;DHT22;24973;47.178;15.316;2023-03-14T08:40:16;11.10;99.90
21799;DHT22;24973;47.178;15.316;2023-03-14T08:43:05;11.30;99.90
21799;DHT22;24973;47.178;15.316;2023-03-14T08:45:57;11.50;99.90
21799;DHT22;24973;47.178;15.316;2023-03-14T08:48:46;11.60;99.90
21799;DHT22;24973;47.178;15.316;2023-03-14T08:51:35;11.70;99.90
21799;DHT22;24973;47.178;15.316;2023-03-14T08:54:24;11.80;99.90
21799;DHT22;24973;47.178;15.316;2023-03-14T08:57:15;11.90;99.90
21799;DHT22;24973;47.178;15.316;2023-03-14T09:00:05;11.90;99.90
21799;DHT22;24973;47.178;15.316;2023-03-14T09:02:57;11.90;99.90
21799;DHT22;24973;47.178;15.316;2023-03-14T09:05:46;12.00;99.90
21799;DHT22;24973;47.178;15.316;2023-03-14T09:08:35;12.10;99.90
21799;DHT22;24973;47.178;15.316;2023-03-14T09:11:25;12.10;99.90
21799;DHT22;24973;47.178;15.316;2023-03-14T09:14:15;12.20;99.90
21799;DHT22;24973;47.178;15.316;2023-03-14T09:17:04;12.20;99.90
21799;DHT22;24973;47.178;15.316;2023-03-14T09:19:53;12.30;99.90
21799;DHT22;24973;47.178;15.316;2023-03-14T09:22:43;12.40;99.90
21799;DHT22;24973;47.178;15.316;2023-03-14T09:25:31;12.60;99.90
21799;DHT22;24973;47.178;15.316;2023-03-14T09:28:20;12.80;99.90
21799;DHT22;24973;47.178;15.316;2023-03-14T09:31:11;13.00;99.90
21799;DHT22;24973;47.178;15.316;2023-03-14T09:34:00;13.00;99.90
21799;DHT22;24973;47.178;15.316;2023-03-14T09:36:49;13.10;99.90
21799;DHT22;24973;47.178;15.316;2023-03-14T09:39:38;13.10;99.90
21799;DHT22;24973;47.178;15.316;2023-03-14T09:42:27;13.10;99.90
21799;DHT22;24973;47.178;15.316;2023-03-14T09:45:21;13.10;99.90
21799;DHT22;24973;47.178;15.316;2023-03-14T09:48:19;13.10;99.90
21799;DHT22;24973;47.178;15.316;2023-03-14T09:51:17;13.10;99.90
21799;DHT22;24973;47.178;15.316;2023-03-14T09:54:17;13.20;99.90
21799;DHT22;24973;47.178;15.316;2023-03-14T09:57:14;13.10;99.90
21799;DHT22;24973;47.178;15.316;2023-03-14T10:00:10;13.10;99.90
21799;DHT22;24973;47.178;15.316;2023-03-14T10:06:27;13.20;99.90
21799;DHT22;24973;47.178;15.316;2023-03-14T10:09:20;13.40;99.90
21799;DHT22;24973;47.178;15.316;2023-03-14T10:12:12;13.60;99.90
21799;DHT22;24973;47.178;15.316;2023-03-14T10:15:04;13.90;99.90
21799;DHT22;24973;47.178;15.316;2023-03-14T10:17:54;14.30;99.90
21799;DHT22;24973;47.178;15.316;2023-03-14T10:20:45;14.60;99.90
21799;DHT22;24973;47.178;15.316;2023-03-14T10:23:37;15.00;99.90
21799;DHT22;24973;47.178;15.316;2023-03-14T10:26:28;15.40;99.90
21799;DHT22;24973;47.178;15.316;2023-03-14T10:29:20;15.60;99.90
21799;DHT22;24973;47.178;15.316;2023-03-14T10:32:18;15.80;99.90
21799;DHT22;24973;47.178;15.316;2023-03-14T10:35:19;15.90;99.90
21799;DHT22;24973;47.178;15.316;2023-03-14T10:38:13;16.20;99.90
21799;DHT22;24973;47.178;15.316;2023-03-14T10:41:16;16.20;96.40
21799;DHT22;24973;47.178;15.316;2023-03-14T10:44:11;16.10;93.10
21799;DHT22;24973;47.178;15.316;2023-03-14T10:47:02;16.00;92.00
21799;DHT22;24973;47.178;15.316;2023-03-14T10:49:51;15.90;91.10
21799;DHT22;24973;47.178;15.316;2023-03-14T10:52:47;15.40;92.30
21799;DHT22;24973;47.178;15.316;2023-03-14T10:55:49;15.20;91.40
21799;DHT22;24973;47.178;15.316;2023-03-14T10:58:40;15.10;91.60
21799;DHT22;24973;47.178;15.316;2023-03-14T11:01:37;14.90;91.20
21799;DHT22;24973;47.178;15.316;2023-03-14T11:04:45;14.90;90.80
21799;DHT22;24973;47.178;15.316;2023-03-14T11:07:41;14.70;90.50
21799;DHT22;24973;47.178;15.316;2023-03-14T11:10:32;14.70;91.00
21799;DHT22;24973;47.178;15.316;2023-03-14T11:13:28;14.70;91.10
21799;DHT22;24973;47.178;15.316;2023-03-14T11:16:25;14.90;90.40
21799;DHT22;24973;47.178;15.316;2023-03-14T11:19:23;14.90;90.20
21799;DHT22;24973;47.178;15.316;2023-03-14T11:22:44;14.90;90.10
21799;DHT22;24973;47.178;15.316;2023-03-14T11:25:42;14.90;90.10
21799;DHT22;24973;47.178;15.316;2023-03-14T11:28:37;15.00;90.20
21799;DHT22;24973;47.178;15.316;2023-03-14T11:31:28;15.30;90.20
21799;DHT22;24973;47.178;15.316;2023-03-14T11:34:24;15.20;88.10
21799;DHT22;24973;47.178;15.316;2023-03-14T11:37:23;15.10;88.70
21799;DHT22;24973;47.178;15.316;2023-03-14T11:40:18;15.10;88.70
21799;DHT22;24973;47.178;15.316;2023-03-14T11:43:12;15.20;87.70
21799;DHT22;24973;47.178;15.316;2023-03-14T11:46:08;15.10;87.00
21799;DHT22;24973;47.178;15.316;2023-03-14T11:49:03;15.00;86.30
21799;DHT22;24973;47.178;15.316;2023-03-14T11:51:56;14.90;86.70
21799;DHT22;24973;47.178;15.316;2023-03-14T11:54:51;14.90;86.10
21799;DHT22;24973;47.178;15.316;2023-03-14T11:57:42;14.90;85.10
21799;DHT22;24973;47.178;15.316;2023-03-14T12:00:33;14.70;84.50
21799;DHT22;24973;47.178;15.316;2023-03-14T12:03:31;14.70;85.10
21799;DHT22;24973;47.178;15.316;2023-03-14T12:06:27;14.60;85.00
21799;DHT22;24973;47.178;15.316;2023-03-14T12:09:22;14.70;85.10
21799;DHT22;24973;47.178;15.316;2023-03-14T12:12:16;14.70;85.80
21799;DHT22;24973;47.178;15.316;2023-03-14T12:15:19;14.60;85.40
21799;DHT22;24973;47.178;15.316;2023-03-14T12:18:20;14.60;85.80
21799;DHT22;24973;47.178;15.316;2023-03-14T12:21:12;14.60;86.10
21799;DHT22;24973;47.178;15.316;2023-03-14T12:24:01;14.60;85.90
21799;DHT22;24973;47.178;15.316;2023-03-14T12:26:53;14.60;86.30
21799;DHT22;24973;47.178;15.316;2023-03-14T12:29:59;14.50;85.40
21799;DHT22;24973;47.178;15.316;2023-03-14T12:33:12;14.50;85.50
21799;DHT22;24973;47.178;15.316;2023-03-14T12:39:59;14.40;85.90
21799;DHT22;24973;47.178;15.316;2023-03-14T12:42:57;14.40;85.20
21799;DHT22;24973;47.178;15.316;2023-03-14T12:46:07;14.30;85.20
21799;DHT22;24973;47.178;15.316;2023-03-14T12:49:11;14.40;85.10
21799;DHT22;24973;47.178;15.316;2023-03-14T12:52:01;14.40;85.30
21799;DHT22;24973;47.178;15.316;2023-03-14T12:54:54;14.50;85.40
21799;DHT22;24973;47.178;15.316;2023-03-14T12:57:54;14.60;84.60
21799;DHT22;24973;47.178;15.316;2023-03-14T13:00:54;14.60;83.80
21799;DHT22;24973;47.178;15.316;2023-03-14T13:03:46;14.80;83.00
21799;DHT22;24973;47.178;15.316;2023-03-14T13:06:50;14.90;83.10
21799;DHT22;24973;47.178;15.316;2023-03-14T13:10:04;14.80;84.00
21799;DHT22;24973;47.178;15.316;2023-03-14T13:13:15;14.80;83.50
21799;DHT22;24973;47.178;15.316;2023-03-14T13:16:12;14.80;83.40
21799;DHT22;24973;47.178;15.316;2023-03-14T13:19:13;14.90;83.40
21799;DHT22;24973;47.178;15.316;2023-03-14T13:22:12;14.90;83.30
21799;DHT22;24973;47.178;15.316;2023-03-14T13:25:09;15.00;83.10
21799;DHT22;24973;47.178;15.316;2023-03-14T13:27:58;15.00;82.60
21799;DHT22;24973;47.178;15.316;2023-03-14T13:30:50;15.00;82.00
21799;DHT22;24973;47.178;15.316;2023-03-14T13:33:43;15.00;82.00
21799;DHT22;24973;47.178;15.316;2023-03-14T13:36:34;15.00;82.80
21799;DHT22;24973;47.178;15.316;2023-03-14T13:39:26;14.90;82.40
21799;DHT22;24973;47.178;15.316;2023-03-14T13:42:18;14.80;82.80
21799;DHT22;24973;47.178;15.316;2023-03-14T13:45:13;14.80;83.10
21799;DHT22;24973;47.178;15.316;2023-03-14T13:48:04;14.70;82.70
21799;DHT22;24973;47.178;15.316;2023-03-14T13:50:55;14.60;83.10
21799;DHT22;24973;47.178;15.316;2023-03-14T13:53:46;14.60;83.00
21799;DHT22;24973;47.178;15.316;2023-03-14T13:56:39;14.50;83.10
21799;DHT22;24973;47.178;15.316;2023-03-14T13:59:31;14.50;83.50
21799;DHT22;24973;47.178;15.316;2023-03-14T14:02:21;14.40;83.50
21799;DHT22;24973;47.178;15.316;2023-03-14T14:05:12;14.40;84.20
21799;DHT22;24973;47.178;15.316;2023-03-14T14:08:03;14.40;84.70
21799;DHT22;24973;47.178;15.316;2023-03-14T14:10:58;14.20;84.30
21799;DHT22;24973;47.178;15.316;2023-03-14T14:13:49;14.20;84.20
21799;DHT22;24973;47.178;15.316;2023-03-14T14:16:39;14.20;84.70
21799;DHT22;24973;47.178;15.316;2023-03-14T14:19:31;14.20;84.70
21799;DHT22;24973;47.178;15.316;2023-03-14T14:22:21;14.10;84.90
21799;DHT22;24973;47.178;15.316;2023-03-14T14:25:13;14.20;85.30
21799;DHT22;24973;47.178;15.316;2023-03-14T14:28:15;14.10;85.70
21799;DHT22;24973;47.178;15.316;2023-03-14T14:31:17;14.00;85.20
21799;DHT22;24973;47.178;15.316;2023-03-14T14:34:19;14.00;85.30
21799;DHT22;24973;47.178;15.316;2023-03-14T14:37:21;14.00;85.20
21799;DHT22;24973;47.178;15.316;2023-03-14T14:40:19;14.00;85.80
21799;DHT22;24973;47.178;15.316;2023-03-14T14:43:14;14.00;85.60
21799;DHT22;24973;47.178;15.316;2023-03-14T14:46:07;14.00;85.90
21799;DHT22;24973;47.178;15.316;2023-03-14T14:49:01;14.00;86.60
21799;DHT22;24973;47.178;15.316;2023-03-14T14:52:00;14.00;88.20
21799;DHT22;24973;47.178;15.316;2023-03-14T14:54:52;13.90;90.00
21799;DHT22;24973;47.178;15.316;2023-03-14T14:57:51;13.80;90.30
21799;DHT22;24973;47.178;15.316;2023-03-14T15:00:41;13.80;90.40
21799;DHT22;24973;47.178;15.316;2023-03-14T15:03:34;13.80;89.60
21799;DHT22;24973;47.178;15.316;2023-03-14T15:06:28;14.00;91.20
21799;DHT22;24973;47.178;15.316;2023-03-14T15:09:19;14.00;92.00
21799;DHT22;24973;47.178;15.316;2023-03-14T15:12:08;14.10;93.20
21799;DHT22;24973;47.178;15.316;2023-03-14T15:14:57;14.10;91.40
21799;DHT22;24973;47.178;15.316;2023-03-14T15:17:46;14.20;91.80
21799;DHT22;24973;47.178;15.316;2023-03-14T15:20:35;14.20;91.90
21799;DHT22;24973;47.178;15.316;2023-03-14T15:23:23;14.00;92.20
21799;DHT22;24973;47.178;15.316;2023-03-14T15:26:16;13.80;93.10
21799;DHT22;24973;47.178;15.316;2023-03-14T15:29:06;13.60;93.90
21799;DHT22;24973;47.178;15.316;2023-03-14T15:31:59;13.30;94.90
21799;DHT22;24973;47.178;15.316;2023-03-14T15:34:48;13.20;95.40
21799;DHT22;24973;47.178;15.316;2023-03-14T15:37:36;13.10;96.00
21799;DHT22;24973;47.178;15.316;2023-03-14T15:40:25;13.60;96.60
21799;DHT22;24973;47.178;15.316;2023-03-14T15:43:18;12.90;96.80
21799;DHT22;24973;47.178;15.316;2023-03-14T15:46:08;12.80;97.30
21799;DHT22;24973;47.178;15.316;2023-03-14T15:48:57;12.80;97.50
21799;DHT22;24973;47.178;15.316;2023-03-14T15:51:46;12.80;97.60
21799;DHT22;24973;47.178;15.316;2023-03-14T15:54:36;12.80;97.90
21799;DHT22;24973;47.178;15.316;2023-03-14T15:57:24;12.70;98.40
21799;DHT22;24973;47.178;15.316;2023-03-14T16:00:17;12.70;98.80
21799;DHT22;24973;47.178;15.316;2023-03-14T16:03:08;12.60;99.10
21799;DHT22;24973;47.178;15.316;2023-03-14T16:05:57;12.60;99.20
21799;DHT22;24973;47.178;15.316;2023-03-14T16:08:46;12.40;99.30
21799;DHT22;24973;47.178;15.316;2023-03-14T16:11:35;12.40;99.60
21799;DHT22;24973;47.178;15.316;2023-03-14T16:14:24;12.30;99.70
21799;DHT22;24973;47.178;15.316;2023-03-14T16:17:15;12.20;99.70
21799;DHT22;24973;47.178;15.316;2023-03-14T16:20:04;12.20;99.90
21799;DHT22;24973;47.178;15.316;2023-03-14T16:22:54;12.10;99.90
21799;DHT22;24973;47.178;15.316;2023-03-14T16:25:43;12.00;99.90
21799;DHT22;24973;47.178;15.316;2023-03-14T16:28:33;12.00;99.90
21799;DHT22;24973;47.178;15.316;2023-03-14T16:31:22;11.80;99.90
21799;DHT22;24973;47.178;15.316;2023-03-14T16:34:13;11.80;99.90
21799;DHT22;24973;47.178;15.316;2023-03-14T16:37:02;11.60;99.90
21799;DHT22;24973;47.178;15.316;2023-03-14T16:39:51;11.70;99.90
21799;DHT22;24973;47.178;15.316;2023-03-14T16:42:57;11.50;99.90
21799;DHT22;24973;47.178;15.316;2023-03-14T16:46:01;11.50;99.90
21799;DHT22;24973;47.178;15.316;2023-03-14T16:48:50;11.40;99.90
21799;DHT22;24973;47.178;15.316;2023-03-14T16:51:41;11.40;99.90
21799;DHT22;24973;47.178;15.316;2023-03-14T16:54:30;11.30;99.90
21799;DHT22;24973;47.178;15.316;2023-03-14T16:57:19;11.30;99.90
21799;DHT22;24973;47.178;15.316;2023-03-14T17:00:09;11.30;99.90
21799;DHT22;24973;47.178;15.316;2023-03-14T17:02:59;11.20;99.90
21799;DHT22;24973;47.178;15.316;2023-03-14T17:05:48;11.20;99.90
21799;DHT22;24973;47.178;15.316;2023-03-14T17:08:40;11.10;99.90
21799;DHT22;24973;47.178;15.316;2023-03-14T17:11:29;11.10;99.90
21799;DHT22;24973;47.178;15.316;2023-03-14T17:14:19;11.00;99.90
21799;DHT22;24973;47.178;15.316;2023-03-14T17:17:08;10.90;99.90
21799;DHT22;24973;47.178;15.316;2023-03-14T17:19:57;10.90;99.90
21799;DHT22;24973;47.178;15.316;2023-03-14T17:22:45;10.80;99.90
21799;DHT22;24973;47.178;15.316;2023-03-14T17:25:36;10.80;99.90
21799;DHT22;24973;47.178;15.316;2023-03-14T17:28:28;10.70;99.90
21799;DHT22;24973;47.178;15.316;2023-03-14T17:31:18;10.60;99.90
21799;DHT22;24973;47.178;15.316;2023-03-14T17:34:08;10.50;99.90
21799;DHT22;24973;47.178;15.316;2023-03-14T17:36:58;10.50;99.90
21799;DHT22;24973;47.178;15.316;2023-03-14T17:39:46;10.40;99.90
21799;DHT22;24973;47.178;15.316;2023-03-14T17:42:36;10.40;99.90
21799;DHT22;24973;47.178;15.316;2023-03-14T17:45:25;10.50;99.90
21799;DHT22;24973;47.178;15.316;2023-03-14T17:48:14;10.60;99.90
21799;DHT22;24973;47.178;15.316;2023-03-14T17:51:03;10.50;99.90
21799;DHT22;24973;47.178;15.316;2023-03-14T17:53:52;10.50;99.90
21799;DHT22;24973;47.178;15.316;2023-03-14T17:56:41;10.50;99.90
21799;DHT22;24973;47.178;15.316;2023-03-14T17:59:32;10.40;99.90
21799;DHT22;24973;47.178;15.316;2023-03-14T18:02:21;10.40;99.90